Espaço - Ciências - Fenômenos Naturais
Meteógrafos Informações Meteorológicas em tempo real

Aerporto de Belo Horizonte

Histórico do Tempo
Temperatura atual: 30 graus 86 F    Umidade relativa: 29 %
Velocidade do vento: 08 nós 14 Km/h    Direção: 070 graus ENE
Ajuste do altímetro ..: 1013 HPA
Visibilidade: Ótima    Tempo presente: Céu Limpo

Observação

Data Hora BRTTempo°CUmidadePressãoVentoVisib.
19/09 - 18:56   Céu Limpo 30° 29% 1013 Este-nordeste/14 km/h OK
19/09 - 17:56   Céu Limpo 30° 29% 1013 Este-nordeste/14 km/h OK
19/09 - 16:56   Não Disponível 33° 21% 1012 Norte-nordeste/9 km/h OK
19/09 - 15:56   Não Disponível 33° 22% 1012 Norte-nordeste/9 km/h OK
19/09 - 14:56   Não Disponível 33° 20% 1013 Norte/7 km/h OK
19/09 - 13:56   Céu Limpo 34° 20% 1014 Noroeste/10 km/h CAVO
19/09 - 12:56   Céu Limpo 32° 24% 1015 /7 km/h OK
19/09 - 11:56   Céu Limpo 30° 29% 1016 Norte-nordeste/12 km/h OK
19/09 - 10:56   Quase sem nuvens 28° 32% 1017 Nordeste/10 km/h 8000
19/09 - 09:56   Quase sem nuvens 27° 36% 1017 Este-nordeste/12 km/h 8000
19/09 - 08:56   Quase sem nuvens 22° 49% 1017 Sudeste/5 km/h 6000
19/09 - 07:56   Quase sem nuvens 19° 59% 1016 Sudeste/7 km/h 6000
19/09 - 06:56   Quase sem nuvens 19° 56% 1016 Sudeste/5 km/h 8000
19/09 - 05:56   Céu Limpo 21° 49% 1014 Este-sudeste/9 km/h OK
19/09 - 04:56   Céu Limpo 21° 49% 1014 Este-sudeste/9 km/h OK
19/09 - 03:56   Céu Limpo 21° 46% 1015 Leste/1 km/h OK
19/09 - 02:56   Céu Limpo 21° 46% 1015 Leste/1 km/h OK
19/09 - 01:56   Céu Limpo 22° 40% 1015 Sul-sudeste/5 km/h OK
19/09 - 00:56   Céu Limpo 22° 40% 1015 Sul-sudeste/3 km/h OK
18/09 - 23:56   Céu Limpo 22° 38% 1015 Sul-sudeste/3 km/h OK
18/09 - 22:56   Céu Limpo 25° 34% 1015 Leste/5 km/h OK
18/09 - 21:56   Céu Limpo 26° 29% 1015 Norte-nordeste/10 km/h OK
18/09 - 20:56   Céu Limpo 28° 23% 1014 Norte/10 km/h OK
18/09 - 19:56   Céu Limpo 29° 21% 1014 Norte/12 km/h OK


Apolo11.com - Todos os direitos reservados - 2000 - 2019
Política de Privacidade   |     Termo de Uso e Licenciamento   |  -   Entre em Contato

"A aventura pode ser louca; mas o aventureiro, para levá-la a cabo, há de ser muito equilibrado" - Chesterton